SPJL/JUL METAR and TAF weather

Enter ICAO airport designator
Station Type Date Time Source
SPJL METAR 2021/01/15 19:00 UTC NOAA

SPJL 151900Z 10006KT 9999 SCT020 SCT080 17/04 Q1029 RMK PP000


Station Type Date Time Source
SPJL Decoded METAR 2021/01/15 19:00 UTC NOAA

Juliaca, Peru (SPJL) 15-29S 070-09W 3827M
Jan 15, 2021 - 02:00 PM EST / 2021.01.15 1900 UTC
Wind: from the E (100 degrees) at 7 MPH (6 KT):0
Visibility: greater than 7 mile(s):0
Sky conditions: partly cloudy
Temperature: 62 F (17 C)
Dew Point: 39 F (4 C)
Relative Humidity: 41%
Pressure (altimeter): 30.39 in. Hg (1029 hPa)
ob: SPJL 151900Z 10006KT 9999 SCT020 SCT080 17/04 Q1029 RMK PP000
cycle: 19

Station Type Date Time Source
SPJL TAF 2021/01/15 18:33 UTC NOAA

TAF SPJL 151725Z 1518/1618 09010KT 9999 BKN020 TX18/1519Z TN06/1610Z
FM160000 16004KT 9999 SCT015 SCT100

Example: see airport list